createdAt,value
2022-08-03T00:01:52.659Z,100899.97
2022-08-03T00:04:33.798Z,100895.47
2022-08-03T00:07:02.341Z,100897.97
2022-08-03T00:09:35.474Z,100895.31
2022-08-03T00:12:06.765Z,100896.19
2022-08-03T00:14:37.244Z,100887.63
2022-08-03T00:17:06.980Z,100899.50
2022-08-03T00:19:37.899Z,100890.03
2022-08-03T00:22:05.813Z,100891.56
2022-08-03T00:24:36.223Z,100889.69
2022-08-03T00:27:07.376Z,100892.13
2022-08-03T00:30:00.001Z,100885.94
2022-08-03T00:32:29.685Z,100884.91
2022-08-03T00:34:59.230Z,100881.38
2022-08-03T00:37:41.482Z,100883.75
2022-08-03T00:40:16.725Z,100884.59
2022-08-03T00:42:53.865Z,100885.22
2022-08-03T00:45:26.339Z,100887.53
2022-08-03T00:47:54.947Z,100878.75
2022-08-03T00:50:25.156Z,100878.59
2022-08-03T00:52:58.103Z,100881.00
2022-08-03T00:55:27.905Z,100869.88
2022-08-03T00:58:01.800Z,100877.47
2022-08-03T01:00:29.759Z,100875.63
2022-08-03T01:02:57.656Z,100875.63
2022-08-03T01:05:42.425Z,100866.16
2022-08-03T01:08:37.088Z,100875.38
2022-08-03T01:11:13.462Z,100872.47
2022-08-03T01:14:01.944Z,100871.50
2022-08-03T01:16:52.965Z,100872.25
2022-08-03T01:19:37.118Z,100871.28
2022-08-03T01:22:12.174Z,100876.16
2022-08-03T01:24:56.712Z,100872.63
2022-08-03T01:27:44.248Z,100875.09
2022-08-03T01:30:15.877Z,100870.53
2022-08-03T01:32:58.465Z,100871.22
2022-08-03T01:35:48.273Z,100863.13
2022-08-03T01:38:23.298Z,100873.44
2022-08-03T01:40:54.677Z,100872.41
2022-08-03T01:44:27.593Z,100879.31
2022-08-03T01:46:18.940Z,100875.59
2022-08-03T01:48:50.924Z,100861.59
2022-08-03T01:51:21.241Z,100865.91
2022-08-03T01:53:55.957Z,100862.22
2022-08-03T01:56:33.493Z,100869.19
2022-08-03T01:59:05.423Z,100869.97
2022-08-03T02:02:15.663Z,100867.31
2022-08-03T02:04:26.872Z,100867.94
2022-08-03T02:07:01.255Z,100868.84
2022-08-03T02:09:32.082Z,100869.53
2022-08-03T02:12:03.770Z,100866.09
2022-08-03T02:14:38.611Z,100864.34
2022-08-03T02:17:08.846Z,100868.31
2022-08-03T02:20:02.275Z,100867.22
2022-08-03T02:22:38.684Z,100866.28
2022-08-03T02:25:08.060Z,100866.97
2022-08-03T02:27:43.847Z,100863.44
2022-08-03T02:30:13.589Z,100861.44
2022-08-03T02:32:52.103Z,100863.38
2022-08-03T02:35:23.975Z,100858.06
2022-08-03T02:37:55.885Z,100851.19
2022-08-03T02:40:28.992Z,100853.66
2022-08-03T02:43:01.242Z,100837.59
2022-08-03T02:45:33.891Z,100850.84
2022-08-03T02:48:06.781Z,100849.94
2022-08-03T02:50:35.955Z,100853.31
2022-08-03T02:53:05.578Z,100842.88
2022-08-03T02:55:36.975Z,100847.03
2022-08-03T02:58:15.180Z,100846.16
2022-08-03T03:00:47.093Z,100846.06
2022-08-03T03:03:16.695Z,100839.19
2022-08-03T03:05:56.074Z,100845.00
2022-08-03T03:08:28.830Z,100850.84
2022-08-03T03:10:59.208Z,100835.38
2022-08-03T03:13:29.258Z,100840.25
2022-08-03T03:16:00.775Z,100844.56
2022-08-03T03:18:32.149Z,100849.59
2022-08-03T03:21:01.819Z,100852.06
2022-08-03T03:23:30.659Z,100848.56
2022-08-03T03:26:04.289Z,100851.88
2022-08-03T03:28:33.515Z,100840.78
2022-08-03T03:31:04.528Z,100821.88
2022-08-03T03:33:40.455Z,100856.22
2022-08-03T03:36:11.310Z,100857.00
2022-08-03T03:38:39.249Z,100857.00
2022-08-03T03:41:07.486Z,100845.03
2022-08-03T03:43:36.048Z,100853.59
2022-08-03T03:46:04.775Z,100850.94
2022-08-03T03:48:35.183Z,100850.94
2022-08-03T03:51:03.687Z,100849.16
2022-08-03T03:53:34.624Z,100844.94
2022-08-03T03:56:05.679Z,100845.72
2022-08-03T03:58:34.256Z,100850.06
2022-08-03T04:01:04.873Z,100836.38
2022-08-03T04:03:37.189Z,100838.94
2022-08-03T04:06:23.187Z,100844.84
2022-08-03T04:09:10.597Z,100854.97
2022-08-03T04:11:42.820Z,100844.66
2022-08-03T04:14:23.948Z,100848.38
2022-08-03T04:16:56.073Z,100842.28
2022-08-03T04:19:29.616Z,100849.31
2022-08-03T04:22:02.439Z,100848.56
2022-08-03T04:24:35.223Z,100845.28
2022-08-03T04:27:08.230Z,100860.03
2022-08-03T04:29:46.427Z,100859.31
2022-08-03T04:32:17.237Z,100856.94
2022-08-03T04:34:47.311Z,100858.00
2022-08-03T04:37:44.713Z,100861.41
2022-08-03T04:40:38.267Z,100860.72
2022-08-03T04:43:10.375Z,100869.34
2022-08-03T04:45:44.165Z,100863.53
2022-08-03T04:51:17.069Z,100869.88
2022-08-03T04:53:45.497Z,100874.31
2022-08-03T04:56:19.098Z,100867.59
2022-08-03T04:58:47.056Z,100869.69
2022-08-03T05:01:20.447Z,100871.63
2022-08-03T05:03:48.399Z,100876.16
2022-08-03T05:06:17.584Z,100873.16
2022-08-03T05:08:51.987Z,100871.75
2022-08-03T05:11:29.612Z,100873.75
2022-08-03T05:13:57.399Z,100878.34
2022-08-03T05:16:26.726Z,100881.81
2022-08-03T05:18:54.602Z,100871.19
2022-08-03T05:21:23.937Z,100864.84
2022-08-03T05:23:57.806Z,100860.78
2022-08-03T05:26:25.910Z,100858.78
2022-08-03T05:28:54.679Z,100860.97
2022-08-03T05:31:33.450Z,100851.97
2022-08-03T05:34:04.156Z,100851.97
2022-08-03T05:36:35.796Z,100857.25
2022-08-03T05:39:06.617Z,100848.38
2022-08-03T05:41:37.097Z,100858.66
2022-08-03T05:44:14.708Z,100859.53
2022-08-03T05:46:44.027Z,100849.78
2022-08-03T05:49:17.695Z,100850.63
2022-08-03T05:52:00.149Z,100866.47
2022-08-03T05:54:56.199Z,100860.13
2022-08-03T06:00:30.485Z,100867.00
2022-08-03T06:02:59.373Z,100869.97
2022-08-03T06:05:36.466Z,100868.59
2022-08-03T06:08:15.521Z,100855.16
2022-08-03T06:10:45.723Z,100861.69
2022-08-03T06:13:14.242Z,100862.31
2022-08-03T06:15:44.589Z,100860.16
2022-08-03T06:18:12.528Z,100859.09
2022-08-03T06:20:40.454Z,100853.66
2022-08-03T06:23:16.136Z,100855.13
2022-08-03T06:25:47.460Z,100864.88
2022-08-03T06:28:51.534Z,100865.78
2022-08-03T06:31:09.279Z,100862.78
2022-08-03T06:34:30.489Z,100858.81
2022-08-03T06:36:40.055Z,100849.47
2022-08-03T06:39:08.499Z,100868.00
2022-08-03T06:41:46.714Z,100868.13
2022-08-03T06:44:14.896Z,100852.63
2022-08-03T06:46:52.498Z,100870.16
2022-08-03T06:49:20.643Z,100868.56
2022-08-03T06:52:04.539Z,100863.75
2022-08-03T06:54:36.291Z,100871.47
2022-08-03T06:57:09.655Z,100889.50
2022-08-03T07:00:09.553Z,100883.22
2022-08-03T07:02:29.243Z,100888.09
2022-08-03T07:05:00.137Z,100880.69
2022-08-03T07:07:28.172Z,100884.31
2022-08-03T07:10:02.538Z,100875.41
2022-08-03T07:12:34.728Z,100892.72
2022-08-03T07:15:03.767Z,100885.00
2022-08-03T07:17:33.299Z,100887.84
2022-08-03T07:20:02.186Z,100887.84
2022-08-03T07:22:32.610Z,100886.66
2022-08-03T07:25:00.455Z,100887.31
2022-08-03T07:27:29.296Z,100896.44
2022-08-03T07:30:01.672Z,100890.59
2022-08-03T07:32:32.530Z,100886.66
2022-08-03T07:35:01.344Z,100889.97
2022-08-03T07:37:35.576Z,100890.00
2022-08-03T07:40:05.724Z,100890.06
2022-08-03T07:42:33.883Z,100892.13
2022-08-03T07:45:03.528Z,100889.16
2022-08-03T07:47:39.937Z,100901.66
2022-08-03T07:50:11.654Z,100892.41
2022-08-03T07:52:51.775Z,100895.78
2022-08-03T07:55:20.924Z,100889.81
2022-08-03T07:57:49.034Z,100884.72
2022-08-03T08:00:21.345Z,100893.66
2022-08-03T08:02:52.351Z,100893.94
2022-08-03T08:05:20.746Z,100897.72
2022-08-03T08:08:01.574Z,100893.50
2022-08-03T08:10:29.775Z,100893.72
2022-08-03T08:13:04.301Z,100887.91
2022-08-03T08:15:36.455Z,100890.66
2022-08-03T08:18:15.898Z,100893.44
2022-08-03T08:20:43.798Z,100892.63
2022-08-03T08:23:42.746Z,100890.84
2022-08-03T08:26:11.613Z,100889.19
2022-08-03T08:28:39.999Z,100891.09
2022-08-03T08:31:09.208Z,100881.06
2022-08-03T08:34:02.624Z,100879.41
2022-08-03T08:36:25.480Z,100882.97
2022-08-03T08:38:53.401Z,100883.03
2022-08-03T08:41:21.333Z,100876.41
2022-08-03T08:43:49.222Z,100882.69
2022-08-03T08:46:23.946Z,100885.28
2022-08-03T08:48:58.998Z,100882.81
2022-08-03T08:51:54.658Z,100876.16
2022-08-03T08:54:27.948Z,100877.19
2022-08-03T08:56:59.286Z,100890.09
2022-08-03T08:59:27.895Z,100883.09
2022-08-03T09:02:20.043Z,100878.97
2022-08-03T09:04:54.842Z,100880.97
2022-08-03T09:07:23.258Z,100882.94
2022-08-03T09:10:10.948Z,100880.47
2022-08-03T09:12:42.708Z,100871.09
2022-08-03T09:15:22.847Z,100868.59
2022-08-03T09:17:54.072Z,100875.59
2022-08-03T09:20:24.467Z,100871.47
2022-08-03T09:22:58.902Z,100869.09
2022-08-03T09:25:31.069Z,100857.63
2022-08-03T09:28:10.389Z,100874.38
2022-08-03T09:30:39.868Z,100870.16
2022-08-03T09:33:10.869Z,100871.19
2022-08-03T09:35:54.965Z,100872.25
2022-08-03T09:38:27.498Z,100867.19
2022-08-03T09:41:00.219Z,100868.88
2022-08-03T09:43:28.763Z,100869.00
2022-08-03T09:46:09.032Z,100864.00
2022-08-03T09:48:43.366Z,100866.00
2022-08-03T09:52:30.120Z,100873.00
2022-08-03T09:54:16.283Z,100860.94
2022-08-03T09:56:47.269Z,100868.84
2022-08-03T09:59:24.910Z,100873.25
2022-08-03T10:01:54.675Z,100866.47
2022-08-03T10:04:24.514Z,100851.00
2022-08-03T10:07:07.248Z,100860.84
2022-08-03T10:09:35.269Z,100859.91
2022-08-03T10:12:10.715Z,100851.38
2022-08-03T10:14:40.303Z,100850.66
2022-08-03T10:17:08.184Z,100854.22
2022-08-03T10:19:37.539Z,100835.66
2022-08-03T10:22:11.605Z,100853.19
2022-08-03T10:24:52.089Z,100865.56
2022-08-03T10:27:21.271Z,100853.75
2022-08-03T10:29:53.749Z,100848.78
2022-08-03T10:32:30.047Z,100847.34
2022-08-03T10:35:19.105Z,100847.53
2022-08-03T10:37:57.072Z,100842.38
2022-08-03T10:43:21.570Z,100845.75
2022-08-03T10:45:52.315Z,100843.19
2022-08-03T10:48:23.272Z,100840.75
2022-08-03T10:50:53.385Z,100835.66
2022-08-03T10:53:36.694Z,100833.94
2022-08-03T10:56:41.451Z,100832.19
2022-08-03T10:59:27.448Z,100828.91
2022-08-03T11:01:59.525Z,100826.50
2022-08-03T11:04:34.937Z,100827.59
2022-08-03T11:07:23.845Z,100829.34
2022-08-03T11:09:52.925Z,100825.94
2022-08-03T11:12:30.393Z,100830.19
2022-08-03T11:15:08.712Z,100838.00
2022-08-03T11:17:45.951Z,100824.16
2022-08-03T11:20:45.102Z,100824.31
2022-08-03T11:23:16.812Z,100827.00
2022-08-03T11:26:12.338Z,100818.47
2022-08-03T11:28:48.578Z,100809.97
2022-08-03T11:31:52.060Z,100820.72
2022-08-03T11:34:20.070Z,100806.97
2022-08-03T11:37:24.632Z,100803.50
2022-08-03T11:39:57.110Z,100810.41
2022-08-03T11:42:48.233Z,100810.56
2022-08-03T11:45:19.921Z,100805.38
2022-08-03T11:47:54.997Z,100798.53
2022-08-03T11:50:24.379Z,100799.59
2022-08-03T11:52:52.384Z,100803.94
2022-08-03T11:55:22.380Z,100804.75
2022-08-03T11:59:01.068Z,100808.19
2022-08-03T12:00:38.324Z,100808.03
2022-08-03T12:03:07.803Z,100806.28
2022-08-03T12:05:56.803Z,100800.22
2022-08-03T12:08:34.492Z,100802.16
2022-08-03T12:11:08.864Z,100793.53
2022-08-03T12:14:10.469Z,100800.50
2022-08-03T12:16:36.671Z,100797.06
2022-08-03T12:19:06.659Z,100797.91
2022-08-03T12:21:34.734Z,100795.38
2022-08-03T12:24:04.026Z,100797.16
2022-08-03T12:26:58.716Z,100796.38
2022-08-03T12:29:33.200Z,100784.31
2022-08-03T12:32:01.259Z,100791.25
2022-08-03T12:34:47.586Z,100787.75
2022-08-03T12:37:21.825Z,100792.97
2022-08-03T12:40:02.475Z,100785.97
2022-08-03T12:42:36.641Z,100786.63
2022-08-03T12:45:19.740Z,100789.19
2022-08-03T12:47:52.187Z,100783.91
2022-08-03T12:50:31.772Z,100783.78
2022-08-03T12:53:03.119Z,100793.50
2022-08-03T12:55:57.739Z,100779.78
2022-08-03T12:58:37.026Z,100781.56
2022-08-03T13:01:09.457Z,100778.09
2022-08-03T13:03:42.396Z,100784.19
2022-08-03T13:06:15.014Z,100773.94
2022-08-03T13:08:47.881Z,100772.09
2022-08-03T13:11:55.547Z,100768.34
2022-08-03T13:14:19.757Z,100769.88
2022-08-03T13:16:49.324Z,100768.00
2022-08-03T13:19:19.807Z,100766.50
2022-08-03T13:22:01.659Z,100769.16
2022-08-03T13:24:32.137Z,100770.84
2022-08-03T13:27:00.108Z,100763.75
2022-08-03T13:29:29.408Z,100762.78
2022-08-03T13:32:02.325Z,100762.16
2022-08-03T13:34:30.294Z,100771.09
2022-08-03T13:37:08.806Z,100743.34
2022-08-03T13:39:57.681Z,100766.06
2022-08-03T13:42:24.908Z,100765.16
2022-08-03T13:44:54.188Z,100755.63
2022-08-03T13:47:23.144Z,100750.50
2022-08-03T13:50:01.862Z,100750.56
2022-08-03T13:52:31.952Z,100753.22
2022-08-03T13:55:03.200Z,100750.66
2022-08-03T13:58:11.760Z,100749.00
2022-08-03T14:00:27.874Z,100737.72
2022-08-03T14:03:16.374Z,100734.31
2022-08-03T14:05:50.404Z,100742.19
2022-08-03T14:08:18.462Z,100736.09
2022-08-03T14:10:46.917Z,100743.97
2022-08-03T14:13:18.039Z,100731.75
2022-08-03T14:15:51.227Z,100736.09
2022-08-03T14:18:28.971Z,100726.53
2022-08-03T14:21:07.235Z,100726.56
2022-08-03T14:23:37.391Z,100724.84
2022-08-03T14:26:05.783Z,100724.03
2022-08-03T14:28:41.465Z,100718.84
2022-08-03T14:31:15.467Z,100720.63
2022-08-03T14:33:58.775Z,100724.06
2022-08-03T14:36:26.847Z,100733.69
2022-08-03T14:39:08.604Z,100723.19
2022-08-03T14:41:39.240Z,100724.94
2022-08-03T14:44:08.888Z,100710.94
2022-08-03T14:46:48.582Z,100718.84
2022-08-03T14:50:38.187Z,100717.13
2022-08-03T14:52:10.511Z,100715.44
2022-08-03T14:54:38.425Z,100711.06
2022-08-03T14:57:11.482Z,100714.53
2022-08-03T14:59:56.376Z,100710.13
2022-08-03T15:02:30.449Z,100704.03
2022-08-03T15:04:58.241Z,100704.91
2022-08-03T15:07:28.487Z,100697.06
2022-08-03T15:09:56.266Z,100692.69
2022-08-03T15:12:33.381Z,100696.19
2022-08-03T15:15:03.856Z,100697.09
2022-08-03T15:18:00.341Z,100688.38
2022-08-03T15:20:38.030Z,100691.00
2022-08-03T15:23:10.869Z,100691.88
2022-08-03T15:26:29.552Z,100691.88
2022-08-03T15:28:37.766Z,100684.03
2022-08-03T15:31:06.606Z,100687.56
2022-08-03T15:33:41.218Z,100690.16
2022-08-03T15:36:09.118Z,100686.63
2022-08-03T15:38:36.904Z,100687.53
2022-08-03T15:41:09.928Z,100681.44
2022-08-03T15:43:41.899Z,100679.69
2022-08-03T15:46:31.514Z,100684.03
2022-08-03T15:49:16.587Z,100677.06
2022-08-03T15:51:46.972Z,100681.44
2022-08-03T15:54:15.130Z,100674.44
2022-08-03T15:56:47.476Z,100666.59
2022-08-03T15:59:42.581Z,100672.66
2022-08-03T16:02:11.003Z,100670.03
2022-08-03T16:04:55.131Z,100671.72
2022-08-03T16:07:40.332Z,100669.03
2022-08-03T16:10:30.512Z,100675.03
2022-08-03T16:13:00.327Z,100670.66
2022-08-03T16:15:38.945Z,100670.63
2022-08-03T16:18:08.007Z,100667.16
2022-08-03T16:20:44.774Z,100669.72
2022-08-03T16:23:15.209Z,100674.09
2022-08-03T16:25:49.545Z,100674.94
2022-08-03T16:28:18.204Z,100676.72
2022-08-03T16:30:55.079Z,100673.22
2022-08-03T16:33:26.926Z,100670.63
2022-08-03T16:36:02.575Z,100676.66
2022-08-03T16:38:31.459Z,100675.78
2022-08-03T16:40:59.592Z,100670.56
2022-08-03T16:43:27.875Z,100674.00
2022-08-03T16:45:58.477Z,100669.69
2022-08-03T16:48:29.851Z,100673.19
2022-08-03T16:50:57.833Z,100669.69
2022-08-03T16:54:08.157Z,100669.69
2022-08-03T16:56:15.639Z,100673.19
2022-08-03T16:58:44.573Z,100673.22
2022-08-03T17:01:21.687Z,100671.44
2022-08-03T17:04:02.197Z,100670.53
2022-08-03T17:06:33.906Z,100666.94
2022-08-03T17:09:09.119Z,100665.16
2022-08-03T17:11:44.076Z,100674.66
2022-08-03T17:14:15.869Z,100675.50
2022-08-03T17:16:52.791Z,100673.72
2022-08-03T17:19:26.588Z,100680.66
2022-08-03T17:22:04.454Z,100676.25
2022-08-03T17:24:37.041Z,100673.59
2022-08-03T17:28:51.235Z,100683.13
2022-08-03T17:30:11.994Z,100676.94
2022-08-03T17:32:57.685Z,100675.16
2022-08-03T17:35:34.504Z,100674.19
2022-08-03T17:38:08.950Z,100674.13
2022-08-03T17:40:50.056Z,100681.00
2022-08-03T17:46:10.906Z,100683.50
2022-08-03T17:48:42.062Z,100684.31
2022-08-03T17:51:17.258Z,100680.75
2022-08-03T17:53:50.764Z,100681.56
2022-08-03T17:56:44.971Z,100669.22
2022-08-03T17:59:50.553Z,100675.22
2022-08-03T18:02:47.666Z,100675.13
2022-08-03T18:05:18.700Z,100687.22
2022-08-03T18:10:49.527Z,100681.84
2022-08-03T18:13:24.626Z,100683.41
2022-08-03T18:15:55.289Z,100678.09
2022-08-03T18:18:32.955Z,100679.72
2022-08-03T18:21:06.839Z,100690.09
2022-08-03T18:23:44.060Z,100684.75
2022-08-03T18:26:14.631Z,100692.50
2022-08-03T18:28:50.616Z,100686.34
2022-08-03T18:32:03.580Z,100695.81
2022-08-03T18:34:19.531Z,100693.13
2022-08-03T18:37:07.438Z,100690.28
2022-08-03T18:39:50.158Z,100691.03
2022-08-03T18:42:25.720Z,100693.50
2022-08-03T18:45:14.988Z,100692.47
2022-08-03T18:48:00.225Z,100694.84
2022-08-03T18:50:49.549Z,100684.97
2022-08-03T18:53:21.798Z,100696.19
2022-08-03T18:56:02.246Z,100697.81
2022-08-03T18:58:36.409Z,100698.63
2022-08-03T19:01:57.870Z,100680.06
2022-08-03T19:04:12.966Z,100703.28
2022-08-03T19:06:44.963Z,100703.16
2022-08-03T19:09:23.505Z,100703.94
2022-08-03T19:12:13.189Z,100709.81
2022-08-03T19:14:56.221Z,100713.09
2022-08-03T19:17:53.025Z,100712.13
2022-08-03T19:20:25.115Z,100718.06
2022-08-03T19:22:54.282Z,100689.97
2022-08-03T19:25:34.272Z,100710.88
2022-08-03T19:28:07.272Z,100714.19
2022-08-03T19:30:39.964Z,100720.06
2022-08-03T19:33:13.789Z,100719.97
2022-08-03T19:35:51.354Z,100724.94
2022-08-03T19:38:28.185Z,100705.50
2022-08-03T19:41:03.950Z,100724.69
2022-08-03T19:43:49.499Z,100716.75
2022-08-03T19:46:30.314Z,100715.69
2022-08-03T19:50:02.816Z,100721.63
2022-08-03T19:52:24.339Z,100722.34
2022-08-03T19:55:01.849Z,100720.47
2022-08-03T19:57:33.780Z,100728.88
2022-08-03T20:00:07.841Z,100726.81
2022-08-03T20:02:36.280Z,100723.94
2022-08-03T20:05:14.873Z,100724.50
2022-08-03T20:07:47.873Z,100727.81
2022-08-03T20:10:27.773Z,100722.44
2022-08-03T20:13:00.703Z,100725.63
2022-08-03T20:15:32.144Z,100727.22
2022-08-03T20:18:00.729Z,100715.84
2022-08-03T20:20:37.178Z,100730.31
2022-08-03T20:23:07.750Z,100734.34
2022-08-03T20:25:48.710Z,100727.19
2022-08-03T20:28:32.265Z,100724.31
2022-08-03T20:31:01.897Z,100731.09
2022-08-03T20:33:46.144Z,100730.97
2022-08-03T20:36:20.586Z,100734.31
2022-08-03T20:38:51.951Z,100740.22
2022-08-03T20:41:23.764Z,100743.56
2022-08-03T20:44:11.779Z,100746.16
2022-08-03T20:46:50.155Z,100749.59
2022-08-03T20:49:24.715Z,100750.47
2022-08-03T20:51:56.573Z,100751.28
2022-08-03T20:54:29.402Z,100747.94
2022-08-03T20:57:00.321Z,100742.88
2022-08-03T20:59:38.554Z,100750.56
2022-08-03T21:02:19.925Z,100748.53
2022-08-03T21:04:57.501Z,100751.94
2022-08-03T21:08:03.882Z,100743.91
2022-08-03T21:10:18.188Z,100751.38
2022-08-03T21:12:51.899Z,100745.94
2022-08-03T21:12:54.884Z,100679.19
2022-08-03T21:13:05.980Z,100687.13
2022-08-03T21:16:02.303Z,100741.22
2022-08-03T21:18:16.888Z,100745.53
2022-08-03T21:20:47.091Z,100744.47
2022-08-03T21:23:39.845Z,100743.41
2022-08-03T21:26:11.339Z,100737.31
2022-08-03T21:28:40.030Z,100740.59
2022-08-03T21:31:11.123Z,100743.97
2022-08-03T21:33:39.648Z,100741.34
2022-08-03T21:36:14.140Z,100744.78
2022-08-03T21:38:44.111Z,100747.19
2022-08-03T21:41:15.554Z,100741.03
2022-08-03T21:43:46.060Z,100741.00
2022-08-03T21:46:20.032Z,100735.63
2022-08-03T21:48:56.022Z,100745.03
2022-08-03T21:51:26.061Z,100743.22
2022-08-03T21:54:03.305Z,100742.22
2022-08-03T21:56:37.570Z,100747.25
2022-08-03T21:59:08.638Z,100734.19
2022-08-03T22:01:43.156Z,100740.09
2022-08-03T22:04:55.345Z,100726.00
2022-08-03T22:07:12.245Z,100739.75
2022-08-03T22:09:51.452Z,100731.88
2022-08-03T22:12:23.964Z,100736.09
2022-08-03T22:15:01.242Z,100731.69
2022-08-03T22:17:55.986Z,100733.34
2022-08-03T22:20:23.304Z,100737.47
2022-08-03T22:22:56.620Z,100740.84
2022-08-03T22:25:40.670Z,100746.72
2022-08-03T22:28:16.108Z,100722.34
2022-08-03T22:30:44.711Z,100735.47
2022-08-03T22:33:16.765Z,100740.63
2022-08-03T22:35:52.325Z,100709.00
2022-08-03T22:38:20.422Z,100747.66
2022-08-03T22:40:51.199Z,100744.88
2022-08-03T22:43:23.594Z,100741.00
2022-08-03T22:46:09.776Z,100754.88
2022-08-03T22:48:41.847Z,100757.25
2022-08-03T22:51:38.912Z,100755.25
2022-08-03T22:54:11.352Z,100755.25
2022-08-03T22:56:41.368Z,100751.94
2022-08-03T22:59:41.378Z,100756.25
2022-08-03T23:02:20.106Z,100754.56
2022-08-03T23:04:53.290Z,100745.94
2022-08-03T23:07:31.314Z,100748.47
2022-08-03T23:10:02.534Z,100744.72
2022-08-03T23:12:36.363Z,100748.75
2022-08-03T23:15:09.740Z,100745.00
2022-08-03T23:17:57.673Z,100740.41
2022-08-03T23:20:28.942Z,100744.69
2022-08-03T23:22:58.807Z,100749.91
2022-08-03T23:25:27.521Z,100730.75
2022-08-03T23:28:04.935Z,100748.06
2022-08-03T23:30:35.630Z,100747.13
2022-08-03T23:33:05.796Z,100748.63
2022-08-03T23:36:22.660Z,100747.47
2022-08-03T23:38:46.001Z,100748.06
2022-08-03T23:41:26.715Z,100749.63
2022-08-03T23:43:57.193Z,100745.91
2022-08-03T23:46:30.262Z,100751.09
2022-08-03T23:49:00.286Z,100759.25
2022-08-03T23:51:40.200Z,100751.59
2022-08-03T23:54:18.541Z,100754.78
2022-08-03T23:57:09.627Z,100751.91
2022-08-03T23:59:50.725Z,100755.00
